sensor_id;sensor_type;location;lat;lon;timestamp;P1;durP1;ratioP1;P2;durP2;ratioP2
38605;SDS011;24365;48.446;8.850;2023-10-09T00:03:08;21.50;;;4.82;;
38605;SDS011;24365;48.446;8.850;2023-10-09T00:08:09;18.90;;;5.90;;
38605;SDS011;24365;48.446;8.850;2023-10-09T00:13:11;17.48;;;5.18;;
38605;SDS011;24365;48.446;8.850;2023-10-09T00:23:13;18.45;;;5.57;;
38605;SDS011;24365;48.446;8.850;2023-10-09T00:28:16;18.70;;;4.65;;
38605;SDS011;24365;48.446;8.850;2023-10-09T00:33:22;19.27;;;5.63;;
38605;SDS011;24365;48.446;8.850;2023-10-09T00:38:23;16.75;;;5.65;;
38605;SDS011;24365;48.446;8.850;2023-10-09T00:43:25;14.48;;;4.57;;
38605;SDS011;24365;48.446;8.850;2023-10-09T00:48:28;13.77;;;5.05;;
38605;SDS011;24365;48.446;8.850;2023-10-09T00:53:37;18.08;;;6.03;;
38605;SDS011;24365;48.446;8.850;2023-10-09T00:58:38;18.23;;;4.88;;
38605;SDS011;24365;48.446;8.850;2023-10-09T01:08:41;15.18;;;4.60;;
38605;SDS011;24365;48.446;8.850;2023-10-09T01:13:43;22.08;;;4.80;;
38605;SDS011;24365;48.446;8.850;2023-10-09T01:18:51;21.63;;;5.50;;
38605;SDS011;24365;48.446;8.850;2023-10-09T01:23:57;18.58;;;5.00;;
38605;SDS011;24365;48.446;8.850;2023-10-09T01:29:11;11.02;;;5.07;;
38605;SDS011;24365;48.446;8.850;2023-10-09T01:34:21;22.98;;;5.50;;
38605;SDS011;24365;48.446;8.850;2023-10-09T01:39:46;18.48;;;4.97;;
38605;SDS011;24365;48.446;8.850;2023-10-09T01:44:48;18.65;;;4.93;;
38605;SDS011;24365;48.446;8.850;2023-10-09T01:49:49;17.90;;;5.72;;
38605;SDS011;24365;48.446;8.850;2023-10-09T01:54:53;15.63;;;4.30;;
38605;SDS011;24365;48.446;8.850;2023-10-09T02:00:02;16.90;;;5.68;;
38605;SDS011;24365;48.446;8.850;2023-10-09T02:05:12;18.58;;;4.70;;
38605;SDS011;24365;48.446;8.850;2023-10-09T02:10:14;17.42;;;5.03;;
38605;SDS011;24365;48.446;8.850;2023-10-09T02:15:30;17.02;;;4.70;;
38605;SDS011;24365;48.446;8.850;2023-10-09T02:20:44;17.60;;;4.60;;
38605;SDS011;24365;48.446;8.850;2023-10-09T02:25:46;19.80;;;5.38;;
38605;SDS011;24365;48.446;8.850;2023-10-09T02:30:47;23.70;;;5.45;;
38605;SDS011;24365;48.446;8.850;2023-10-09T02:35:49;12.05;;;4.65;;
38605;SDS011;24365;48.446;8.850;2023-10-09T02:40:52;15.52;;;5.13;;
38605;SDS011;24365;48.446;8.850;2023-10-09T02:46:21;22.73;;;6.28;;
38605;SDS011;24365;48.446;8.850;2023-10-09T02:51:34;14.95;;;5.85;;
38605;SDS011;24365;48.446;8.850;2023-10-09T02:56:41;18.20;;;5.15;;
38605;SDS011;24365;48.446;8.850;2023-10-09T03:06:44;16.25;;;5.05;;
38605;SDS011;24365;48.446;8.850;2023-10-09T03:11:51;16.55;;;5.47;;
38605;SDS011;24365;48.446;8.850;2023-10-09T03:16:54;17.05;;;5.60;;
38605;SDS011;24365;48.446;8.850;2023-10-09T03:21:59;17.23;;;5.22;;
38605;SDS011;24365;48.446;8.850;2023-10-09T03:27:03;17.38;;;5.07;;
38605;SDS011;24365;48.446;8.850;2023-10-09T03:37:06;18.88;;;4.53;;
38605;SDS011;24365;48.446;8.850;2023-10-09T03:42:21;19.60;;;4.95;;
38605;SDS011;24365;48.446;8.850;2023-10-09T03:47:22;17.80;;;5.93;;
38605;SDS011;24365;48.446;8.850;2023-10-09T03:52:24;27.77;;;5.63;;
38605;SDS011;24365;48.446;8.850;2023-10-09T03:57:27;11.98;;;5.03;;
38605;SDS011;24365;48.446;8.850;2023-10-09T04:02:29;17.97;;;4.73;;
38605;SDS011;24365;48.446;8.850;2023-10-09T04:07:31;20.60;;;4.70;;
38605;SDS011;24365;48.446;8.850;2023-10-09T04:12:34;16.88;;;4.63;;
38605;SDS011;24365;48.446;8.850;2023-10-09T04:17:34;16.87;;;5.10;;
38605;SDS011;24365;48.446;8.850;2023-10-09T04:27:50;29.17;;;5.22;;
38605;SDS011;24365;48.446;8.850;2023-10-09T04:32:57;14.82;;;4.85;;
38605;SDS011;24365;48.446;8.850;2023-10-09T04:38:04;14.55;;;4.57;;
38605;SDS011;24365;48.446;8.850;2023-10-09T04:43:06;18.92;;;5.00;;
38605;SDS011;24365;48.446;8.850;2023-10-09T04:48:07;20.52;;;4.57;;
38605;SDS011;24365;48.446;8.850;2023-10-09T04:53:09;16.83;;;5.22;;
38605;SDS011;24365;48.446;8.850;2023-10-09T04:58:19;21.13;;;4.88;;
38605;SDS011;24365;48.446;8.850;2023-10-09T05:03:26;18.75;;;4.78;;
38605;SDS011;24365;48.446;8.850;2023-10-09T05:08:43;18.02;;;4.30;;
38605;SDS011;24365;48.446;8.850;2023-10-09T05:13:47;17.17;;;4.70;;
38605;SDS011;24365;48.446;8.850;2023-10-09T05:18:58;15.68;;;4.03;;
38605;SDS011;24365;48.446;8.850;2023-10-09T05:24:03;15.68;;;5.13;;
38605;SDS011;24365;48.446;8.850;2023-10-09T05:34:34;18.25;;;5.28;;
38605;SDS011;24365;48.446;8.850;2023-10-09T05:39:41;15.30;;;4.18;;
38605;SDS011;24365;48.446;8.850;2023-10-09T05:44:43;12.43;;;4.93;;
38605;SDS011;24365;48.446;8.850;2023-10-09T05:50:17;19.23;;;4.75;;
38605;SDS011;24365;48.446;8.850;2023-10-09T05:55:21;16.30;;;5.07;;
38605;SDS011;24365;48.446;8.850;2023-10-09T06:00:26;18.10;;;4.28;;
38605;SDS011;24365;48.446;8.850;2023-10-09T06:05:46;22.20;;;5.43;;
38605;SDS011;24365;48.446;8.850;2023-10-09T06:10:57;22.38;;;5.38;;
38605;SDS011;24365;48.446;8.850;2023-10-09T06:16:27;14.57;;;5.22;;
38605;SDS011;24365;48.446;8.850;2023-10-09T06:21:47;13.60;;;5.03;;
38605;SDS011;24365;48.446;8.850;2023-10-09T06:26:54;18.48;;;4.93;;
38605;SDS011;24365;48.446;8.850;2023-10-09T06:32:04;20.23;;;5.68;;
38605;SDS011;24365;48.446;8.850;2023-10-09T06:37:19;16.08;;;4.78;;
38605;SDS011;24365;48.446;8.850;2023-10-09T06:42:26;19.77;;;5.85;;
38605;SDS011;24365;48.446;8.850;2023-10-09T06:47:42;19.33;;;5.65;;
38605;SDS011;24365;48.446;8.850;2023-10-09T06:53:27;23.45;;;6.60;;
38605;SDS011;24365;48.446;8.850;2023-10-09T06:58:49;19.90;;;5.57;;
38605;SDS011;24365;48.446;8.850;2023-10-09T07:03:55;17.52;;;6.25;;
38605;SDS011;24365;48.446;8.850;2023-10-09T07:09:15;22.05;;;5.40;;
38605;SDS011;24365;48.446;8.850;2023-10-09T07:14:20;22.88;;;5.82;;
38605;SDS011;24365;48.446;8.850;2023-10-09T07:24:35;21.50;;;5.20;;
38605;SDS011;24365;48.446;8.850;2023-10-09T07:29:43;21.30;;;5.10;;
38605;SDS011;24365;48.446;8.850;2023-10-09T07:34:50;21.15;;;5.68;;
38605;SDS011;24365;48.446;8.850;2023-10-09T07:39:54;24.38;;;8.05;;
38605;SDS011;24365;48.446;8.850;2023-10-09T07:44:59;20.30;;;5.80;;
38605;SDS011;24365;48.446;8.850;2023-10-09T07:50:12;19.70;;;5.28;;
38605;SDS011;24365;48.446;8.850;2023-10-09T07:55:13;25.90;;;7.00;;
38605;SDS011;24365;48.446;8.850;2023-10-09T08:00:26;26.05;;;6.47;;
38605;SDS011;24365;48.446;8.850;2023-10-09T08:05:36;17.10;;;5.68;;
38605;SDS011;24365;48.446;8.850;2023-10-09T08:10:44;19.10;;;5.38;;
38605;SDS011;24365;48.446;8.850;2023-10-09T08:16:04;21.10;;;5.60;;
38605;SDS011;24365;48.446;8.850;2023-10-09T08:21:05;16.37;;;5.07;;
38605;SDS011;24365;48.446;8.850;2023-10-09T08:26:06;24.70;;;6.57;;
38605;SDS011;24365;48.446;8.850;2023-10-09T08:31:14;35.97;;;6.45;;
38605;SDS011;24365;48.446;8.850;2023-10-09T08:36:48;19.88;;;6.60;;
38605;SDS011;24365;48.446;8.850;2023-10-09T08:41:53;23.15;;;6.88;;
38605;SDS011;24365;48.446;8.850;2023-10-09T08:46:58;21.15;;;6.38;;
38605;SDS011;24365;48.446;8.850;2023-10-09T08:51:59;17.42;;;5.85;;
38605;SDS011;24365;48.446;8.850;2023-10-09T08:57:03;18.98;;;6.38;;
38605;SDS011;24365;48.446;8.850;2023-10-09T09:02:10;20.48;;;6.15;;
38605;SDS011;24365;48.446;8.850;2023-10-09T09:07:32;24.58;;;5.82;;
38605;SDS011;24365;48.446;8.850;2023-10-09T09:12:34;18.73;;;5.10;;
38605;SDS011;24365;48.446;8.850;2023-10-09T09:17:40;24.13;;;6.03;;
38605;SDS011;24365;48.446;8.850;2023-10-09T09:22:52;21.50;;;4.82;;
38605;SDS011;24365;48.446;8.850;2023-10-09T09:27:57;27.02;;;5.03;;
38605;SDS011;24365;48.446;8.850;2023-10-09T09:33:20;18.80;;;4.20;;
38605;SDS011;24365;48.446;8.850;2023-10-09T09:38:43;15.18;;;3.90;;
38605;SDS011;24365;48.446;8.850;2023-10-09T09:43:55;12.00;;;3.17;;
38605;SDS011;24365;48.446;8.850;2023-10-09T09:48:57;11.85;;;3.55;;
38605;SDS011;24365;48.446;8.850;2023-10-09T09:54:04;20.80;;;4.10;;
38605;SDS011;24365;48.446;8.850;2023-10-09T09:59:10;16.80;;;3.67;;
38605;SDS011;24365;48.446;8.850;2023-10-09T10:04:21;18.83;;;3.63;;
38605;SDS011;24365;48.446;8.850;2023-10-09T10:14:51;21.83;;;4.13;;
38605;SDS011;24365;48.446;8.850;2023-10-09T10:20:00;19.80;;;4.05;;
38605;SDS011;24365;48.446;8.850;2023-10-09T10:30:33;24.00;;;4.22;;
38605;SDS011;24365;48.446;8.850;2023-10-09T10:35:35;19.75;;;3.30;;
38605;SDS011;24365;48.446;8.850;2023-10-09T10:40:40;18.55;;;3.85;;
38605;SDS011;24365;48.446;8.850;2023-10-09T10:45:47;18.90;;;3.15;;
38605;SDS011;24365;48.446;8.850;2023-10-09T10:50:49;20.00;;;4.03;;
38605;SDS011;24365;48.446;8.850;2023-10-09T10:55:57;23.33;;;4.60;;
38605;SDS011;24365;48.446;8.850;2023-10-09T11:01:11;18.70;;;4.00;;
38605;SDS011;24365;48.446;8.850;2023-10-09T11:06:14;24.70;;;4.22;;
38605;SDS011;24365;48.446;8.850;2023-10-09T11:11:24;16.17;;;4.05;;
38605;SDS011;24365;48.446;8.850;2023-10-09T11:16:32;24.63;;;4.65;;
38605;SDS011;24365;48.446;8.850;2023-10-09T11:21:42;24.33;;;4.70;;
38605;SDS011;24365;48.446;8.850;2023-10-09T11:26:43;30.92;;;4.70;;
38605;SDS011;24365;48.446;8.850;2023-10-09T11:42:18;22.95;;;4.50;;
38605;SDS011;24365;48.446;8.850;2023-10-09T11:47:39;25.25;;;4.80;;
38605;SDS011;24365;48.446;8.850;2023-10-09T11:52:57;25.67;;;4.60;;
38605;SDS011;24365;48.446;8.850;2023-10-09T11:58:34;26.38;;;4.70;;
38605;SDS011;24365;48.446;8.850;2023-10-09T12:03:40;26.50;;;5.88;;
38605;SDS011;24365;48.446;8.850;2023-10-09T12:08:41;26.58;;;5.10;;
38605;SDS011;24365;48.446;8.850;2023-10-09T12:13:42;26.08;;;4.68;;
38605;SDS011;24365;48.446;8.850;2023-10-09T12:18:43;22.00;;;5.07;;
38605;SDS011;24365;48.446;8.850;2023-10-09T12:23:53;17.08;;;4.03;;
38605;SDS011;24365;48.446;8.850;2023-10-09T12:28:57;26.17;;;4.57;;
38605;SDS011;24365;48.446;8.850;2023-10-09T12:33:58;22.45;;;4.60;;
38605;SDS011;24365;48.446;8.850;2023-10-09T12:44:01;23.08;;;4.55;;
38605;SDS011;24365;48.446;8.850;2023-10-09T12:54:03;32.15;;;4.55;;
38605;SDS011;24365;48.446;8.850;2023-10-09T12:59:05;26.17;;;4.63;;
38605;SDS011;24365;48.446;8.850;2023-10-09T13:04:30;25.30;;;4.30;;
38605;SDS011;24365;48.446;8.850;2023-10-09T13:09:33;26.80;;;5.18;;
38605;SDS011;24365;48.446;8.850;2023-10-09T13:14:43;26.92;;;5.85;;
38605;SDS011;24365;48.446;8.850;2023-10-09T13:19:46;22.77;;;4.68;;
38605;SDS011;24365;48.446;8.850;2023-10-09T13:24:47;18.85;;;3.95;;
38605;SDS011;24365;48.446;8.850;2023-10-09T13:29:50;31.38;;;6.22;;
38605;SDS011;24365;48.446;8.850;2023-10-09T13:34:52;26.42;;;5.65;;
38605;SDS011;24365;48.446;8.850;2023-10-09T13:39:55;30.63;;;5.85;;
38605;SDS011;24365;48.446;8.850;2023-10-09T13:44:57;29.25;;;5.07;;
38605;SDS011;24365;48.446;8.850;2023-10-09T13:50:05;21.63;;;5.57;;
38605;SDS011;24365;48.446;8.850;2023-10-09T13:55:18;27.95;;;6.07;;
38605;SDS011;24365;48.446;8.850;2023-10-09T14:00:20;22.80;;;5.50;;
38605;SDS011;24365;48.446;8.850;2023-10-09T14:05:33;23.10;;;5.00;;
38605;SDS011;24365;48.446;8.850;2023-10-09T14:10:36;25.70;;;5.38;;
38605;SDS011;24365;48.446;8.850;2023-10-09T14:15:39;24.75;;;4.97;;
38605;SDS011;24365;48.446;8.850;2023-10-09T14:20:41;28.30;;;5.15;;
38605;SDS011;24365;48.446;8.850;2023-10-09T14:25:43;19.40;;;4.43;;
38605;SDS011;24365;48.446;8.850;2023-10-09T14:30:45;22.90;;;5.18;;
38605;SDS011;24365;48.446;8.850;2023-10-09T14:35:49;30.63;;;4.90;;
38605;SDS011;24365;48.446;8.850;2023-10-09T14:40:52;21.60;;;5.03;;
38605;SDS011;24365;48.446;8.850;2023-10-09T14:46:00;21.63;;;5.13;;
38605;SDS011;24365;48.446;8.850;2023-10-09T14:56:05;22.30;;;4.18;;
38605;SDS011;24365;48.446;8.850;2023-10-09T15:01:09;24.85;;;4.55;;
38605;SDS011;24365;48.446;8.850;2023-10-09T15:06:15;22.30;;;4.93;;
38605;SDS011;24365;48.446;8.850;2023-10-09T15:11:21;24.55;;;5.15;;
38605;SDS011;24365;48.446;8.850;2023-10-09T15:16:23;26.17;;;5.15;;
38605;SDS011;24365;48.446;8.850;2023-10-09T15:21:27;20.20;;;4.50;;
38605;SDS011;24365;48.446;8.850;2023-10-09T15:26:28;23.05;;;4.38;;
38605;SDS011;24365;48.446;8.850;2023-10-09T15:31:33;21.40;;;4.95;;
38605;SDS011;24365;48.446;8.850;2023-10-09T15:36:35;18.70;;;4.60;;
38605;SDS011;24365;48.446;8.850;2023-10-09T15:41:36;23.55;;;4.22;;
38605;SDS011;24365;48.446;8.850;2023-10-09T15:46:40;19.70;;;4.28;;
38605;SDS011;24365;48.446;8.850;2023-10-09T15:51:42;25.60;;;4.28;;
38605;SDS011;24365;48.446;8.850;2023-10-09T15:56:43;27.88;;;5.20;;
38605;SDS011;24365;48.446;8.850;2023-10-09T16:01:45;20.42;;;4.32;;
38605;SDS011;24365;48.446;8.850;2023-10-09T16:06:47;23.92;;;4.50;;
38605;SDS011;24365;48.446;8.850;2023-10-09T16:11:48;15.75;;;3.60;;
38605;SDS011;24365;48.446;8.850;2023-10-09T16:16:49;17.50;;;3.72;;
38605;SDS011;24365;48.446;8.850;2023-10-09T16:22:00;23.63;;;4.75;;
38605;SDS011;24365;48.446;8.850;2023-10-09T16:27:13;17.00;;;3.80;;
38605;SDS011;24365;48.446;8.850;2023-10-09T16:32:15;18.10;;;4.15;;
38605;SDS011;24365;48.446;8.850;2023-10-09T16:37:17;20.42;;;4.35;;
38605;SDS011;24365;48.446;8.850;2023-10-09T16:42:22;20.73;;;4.70;;
38605;SDS011;24365;48.446;8.850;2023-10-09T16:47:24;19.40;;;3.45;;
38605;SDS011;24365;48.446;8.850;2023-10-09T16:52:25;29.80;;;4.65;;
38605;SDS011;24365;48.446;8.850;2023-10-09T16:57:26;19.08;;;3.65;;
38605;SDS011;24365;48.446;8.850;2023-10-09T17:02:28;19.60;;;3.60;;
38605;SDS011;24365;48.446;8.850;2023-10-09T17:07:31;18.05;;;3.58;;
38605;SDS011;24365;48.446;8.850;2023-10-09T17:12:34;17.13;;;3.72;;
38605;SDS011;24365;48.446;8.850;2023-10-09T17:17:46;15.88;;;3.55;;
38605;SDS011;24365;48.446;8.850;2023-10-09T17:23:01;12.38;;;3.63;;
38605;SDS011;24365;48.446;8.850;2023-10-09T17:28:03;14.02;;;4.35;;
38605;SDS011;24365;48.446;8.850;2023-10-09T17:33:06;18.83;;;3.58;;
38605;SDS011;24365;48.446;8.850;2023-10-09T17:38:07;17.40;;;4.00;;
38605;SDS011;24365;48.446;8.850;2023-10-09T17:43:10;19.70;;;4.82;;
38605;SDS011;24365;48.446;8.850;2023-10-09T17:48:13;31.38;;;12.25;;
38605;SDS011;24365;48.446;8.850;2023-10-09T17:53:17;24.80;;;8.35;;
38605;SDS011;24365;48.446;8.850;2023-10-09T17:58:18;21.55;;;7.60;;
38605;SDS011;24365;48.446;8.850;2023-10-09T18:03:24;25.92;;;10.75;;
38605;SDS011;24365;48.446;8.850;2023-10-09T18:08:29;34.30;;;16.33;;
38605;SDS011;24365;48.446;8.850;2023-10-09T18:13:31;28.48;;;14.07;;
38605;SDS011;24365;48.446;8.850;2023-10-09T18:18:36;25.08;;;12.40;;
38605;SDS011;24365;48.446;8.850;2023-10-09T18:23:38;21.45;;;8.80;;
38605;SDS011;24365;48.446;8.850;2023-10-09T18:28:54;29.85;;;10.77;;
38605;SDS011;24365;48.446;8.850;2023-10-09T18:33:56;31.40;;;10.32;;
38605;SDS011;24365;48.446;8.850;2023-10-09T18:39:00;29.33;;;8.60;;
38605;SDS011;24365;48.446;8.850;2023-10-09T18:44:02;18.45;;;6.57;;
38605;SDS011;24365;48.446;8.850;2023-10-09T18:49:10;18.50;;;5.47;;
38605;SDS011;24365;48.446;8.850;2023-10-09T18:54:15;19.17;;;5.00;;
38605;SDS011;24365;48.446;8.850;2023-10-09T18:59:16;20.05;;;4.03;;
38605;SDS011;24365;48.446;8.850;2023-10-09T19:04:23;16.42;;;4.68;;
38605;SDS011;24365;48.446;8.850;2023-10-09T19:09:24;15.07;;;4.63;;
38605;SDS011;24365;48.446;8.850;2023-10-09T19:14:25;22.15;;;5.55;;
38605;SDS011;24365;48.446;8.850;2023-10-09T19:19:29;13.25;;;5.13;;
38605;SDS011;24365;48.446;8.850;2023-10-09T19:24:30;12.73;;;5.40;;
38605;SDS011;24365;48.446;8.850;2023-10-09T19:29:32;15.43;;;5.68;;
38605;SDS011;24365;48.446;8.850;2023-10-09T19:34:33;15.35;;;5.50;;
38605;SDS011;24365;48.446;8.850;2023-10-09T19:39:35;18.38;;;6.13;;
38605;SDS011;24365;48.446;8.850;2023-10-09T19:44:41;21.33;;;9.63;;
38605;SDS011;24365;48.446;8.850;2023-10-09T19:49:43;25.92;;;9.52;;
38605;SDS011;24365;48.446;8.850;2023-10-09T19:54:44;15.93;;;6.75;;
38605;SDS011;24365;48.446;8.850;2023-10-09T19:59:46;16.77;;;6.18;;
38605;SDS011;24365;48.446;8.850;2023-10-09T20:04:49;16.20;;;5.80;;
38605;SDS011;24365;48.446;8.850;2023-10-09T20:09:51;15.35;;;5.13;;
38605;SDS011;24365;48.446;8.850;2023-10-09T20:19:53;18.57;;;6.53;;
38605;SDS011;24365;48.446;8.850;2023-10-09T20:24:54;23.38;;;5.82;;
38605;SDS011;24365;48.446;8.850;2023-10-09T20:29:55;14.10;;;5.13;;
38605;SDS011;24365;48.446;8.850;2023-10-09T20:34:56;14.10;;;4.30;;
38605;SDS011;24365;48.446;8.850;2023-10-09T20:39:57;19.20;;;4.47;;
38605;SDS011;24365;48.446;8.850;2023-10-09T20:44:59;13.90;;;4.90;;
38605;SDS011;24365;48.446;8.850;2023-10-09T20:50:04;16.35;;;4.78;;
38605;SDS011;24365;48.446;8.850;2023-10-09T20:55:07;17.48;;;5.07;;
38605;SDS011;24365;48.446;8.850;2023-10-09T21:00:09;17.85;;;4.80;;
38605;SDS011;24365;48.446;8.850;2023-10-09T21:05:19;17.75;;;4.38;;
38605;SDS011;24365;48.446;8.850;2023-10-09T21:10:23;21.45;;;6.22;;
38605;SDS011;24365;48.446;8.850;2023-10-09T21:15:25;14.07;;;4.55;;
38605;SDS011;24365;48.446;8.850;2023-10-09T21:20:27;17.40;;;4.85;;
38605;SDS011;24365;48.446;8.850;2023-10-09T21:25:30;13.90;;;4.15;;
38605;SDS011;24365;48.446;8.850;2023-10-09T21:35:32;20.10;;;4.68;;
38605;SDS011;24365;48.446;8.850;2023-10-09T21:40:38;19.52;;;5.90;;
38605;SDS011;24365;48.446;8.850;2023-10-09T21:45:39;23.35;;;5.22;;
38605;SDS011;24365;48.446;8.850;2023-10-09T21:50:48;14.20;;;4.95;;
38605;SDS011;24365;48.446;8.850;2023-10-09T21:55:48;13.47;;;4.90;;
38605;SDS011;24365;48.446;8.850;2023-10-09T22:00:49;17.17;;;4.37;;
38605;SDS011;24365;48.446;8.850;2023-10-09T22:05:50;12.10;;;4.40;;
38605;SDS011;24365;48.446;8.850;2023-10-09T22:10:53;14.07;;;5.00;;
38605;SDS011;24365;48.446;8.850;2023-10-09T22:15:55;16.90;;;5.70;;
38605;SDS011;24365;48.446;8.850;2023-10-09T22:20:56;17.42;;;5.05;;
38605;SDS011;24365;48.446;8.850;2023-10-09T22:25:57;16.13;;;4.93;;
38605;SDS011;24365;48.446;8.850;2023-10-09T22:31:01;17.40;;;4.78;;
38605;SDS011;24365;48.446;8.850;2023-10-09T22:36:11;10.90;;;4.20;;
38605;SDS011;24365;48.446;8.850;2023-10-09T22:41:14;15.00;;;4.78;;
38605;SDS011;24365;48.446;8.850;2023-10-09T22:46:20;19.65;;;5.03;;
38605;SDS011;24365;48.446;8.850;2023-10-09T22:51:22;18.52;;;5.10;;
38605;SDS011;24365;48.446;8.850;2023-10-09T22:56:30;15.60;;;5.65;;
38605;SDS011;24365;48.446;8.850;2023-10-09T23:01:31;20.80;;;4.78;;
38605;SDS011;24365;48.446;8.850;2023-10-09T23:06:33;21.75;;;5.03;;
38605;SDS011;24365;48.446;8.850;2023-10-09T23:11:34;23.95;;;5.65;;
38605;SDS011;24365;48.446;8.850;2023-10-09T23:16:35;22.95;;;6.05;;
38605;SDS011;24365;48.446;8.850;2023-10-09T23:22:03;14.45;;;5.35;;
38605;SDS011;24365;48.446;8.850;2023-10-09T23:27:24;14.85;;;5.10;;
38605;SDS011;24365;48.446;8.850;2023-10-09T23:32:38;16.60;;;5.30;;
38605;SDS011;24365;48.446;8.850;2023-10-09T23:38:02;19.60;;;6.05;;
38605;SDS011;24365;48.446;8.850;2023-10-09T23:43:21;14.02;;;5.35;;
38605;SDS011;24365;48.446;8.850;2023-10-09T23:48:28;16.60;;;6.00;;
38605;SDS011;24365;48.446;8.850;2023-10-09T23:53:34;20.13;;;6.82;;
38605;SDS011;24365;48.446;8.850;2023-10-09T23:58:46;19.90;;;5.78;;
